sensor_id;sensor_type;location;lat;lon;timestamp;P1;durP1;ratioP1;P2;durP2;ratioP2
72095;SDS011;59968;51.084;16.748;2023-06-22T00:01:30;13.00;;;10.50;;
72095;SDS011;59968;51.084;16.748;2023-06-22T00:03:59;13.80;;;10.80;;
72095;SDS011;59968;51.084;16.748;2023-06-22T00:06:28;13.70;;;10.30;;
72095;SDS011;59968;51.084;16.748;2023-06-22T00:08:56;12.80;;;10.70;;
72095;SDS011;59968;51.084;16.748;2023-06-22T00:11:24;14.60;;;10.30;;
72095;SDS011;59968;51.084;16.748;2023-06-22T00:13:58;14.30;;;10.60;;
72095;SDS011;59968;51.084;16.748;2023-06-22T00:16:29;13.40;;;10.60;;
72095;SDS011;59968;51.084;16.748;2023-06-22T00:18:59;14.70;;;10.40;;
72095;SDS011;59968;51.084;16.748;2023-06-22T00:21:30;13.50;;;10.90;;
72095;SDS011;59968;51.084;16.748;2023-06-22T00:23:59;14.30;;;11.10;;
72095;SDS011;59968;51.084;16.748;2023-06-22T00:26:27;12.90;;;10.40;;
72095;SDS011;59968;51.084;16.748;2023-06-22T00:28:56;15.10;;;11.30;;
72095;SDS011;59968;51.084;16.748;2023-06-22T00:31:24;12.80;;;10.40;;
72095;SDS011;59968;51.084;16.748;2023-06-22T00:33:54;13.80;;;10.70;;
72095;SDS011;59968;51.084;16.748;2023-06-22T00:36:23;16.40;;;10.60;;
72095;SDS011;59968;51.084;16.748;2023-06-22T00:38:52;15.00;;;10.90;;
72095;SDS011;59968;51.084;16.748;2023-06-22T00:41:21;13.60;;;11.00;;
72095;SDS011;59968;51.084;16.748;2023-06-22T00:43:49;14.50;;;10.90;;
72095;SDS011;59968;51.084;16.748;2023-06-22T00:46:18;14.60;;;11.20;;
72095;SDS011;59968;51.084;16.748;2023-06-22T00:48:47;15.10;;;11.00;;
72095;SDS011;59968;51.084;16.748;2023-06-22T00:51:15;15.30;;;11.80;;
72095;SDS011;59968;51.084;16.748;2023-06-22T00:53:45;15.40;;;11.20;;
72095;SDS011;59968;51.084;16.748;2023-06-22T00:56:14;14.00;;;11.20;;
72095;SDS011;59968;51.084;16.748;2023-06-22T00:58:43;16.00;;;11.20;;
72095;SDS011;59968;51.084;16.748;2023-06-22T01:01:12;16.40;;;11.60;;
72095;SDS011;59968;51.084;16.748;2023-06-22T01:03:42;16.90;;;11.90;;
72095;SDS011;59968;51.084;16.748;2023-06-22T01:06:13;15.00;;;11.30;;
72095;SDS011;59968;51.084;16.748;2023-06-22T01:08:51;15.50;;;10.80;;
72095;SDS011;59968;51.084;16.748;2023-06-22T01:11:32;15.70;;;11.30;;
72095;SDS011;59968;51.084;16.748;2023-06-22T01:14:12;15.20;;;11.60;;
72095;SDS011;59968;51.084;16.748;2023-06-22T01:16:48;13.80;;;11.20;;
72095;SDS011;59968;51.084;16.748;2023-06-22T01:22:07;14.80;;;11.60;;
72095;SDS011;59968;51.084;16.748;2023-06-22T01:30:17;15.00;;;10.90;;
72095;SDS011;59968;51.084;16.748;2023-06-22T01:32:47;16.50;;;11.30;;
72095;SDS011;59968;51.084;16.748;2023-06-22T01:35:17;14.80;;;10.90;;
72095;SDS011;59968;51.084;16.748;2023-06-22T01:37:47;15.60;;;11.60;;
72095;SDS011;59968;51.084;16.748;2023-06-22T01:40:18;14.50;;;11.00;;
72095;SDS011;59968;51.084;16.748;2023-06-22T01:42:48;14.70;;;11.70;;
72095;SDS011;59968;51.084;16.748;2023-06-22T01:45:18;14.80;;;11.50;;
72095;SDS011;59968;51.084;16.748;2023-06-22T01:47:47;14.30;;;11.70;;
72095;SDS011;59968;51.084;16.748;2023-06-22T01:50:18;15.60;;;11.40;;
72095;SDS011;59968;51.084;16.748;2023-06-22T01:52:46;15.20;;;10.80;;
72095;SDS011;59968;51.084;16.748;2023-06-22T01:55:15;15.00;;;11.40;;
72095;SDS011;59968;51.084;16.748;2023-06-22T01:57:43;13.10;;;11.10;;
72095;SDS011;59968;51.084;16.748;2023-06-22T02:00:13;16.50;;;11.50;;
72095;SDS011;59968;51.084;16.748;2023-06-22T02:03:13;15.30;;;11.60;;
72095;SDS011;59968;51.084;16.748;2023-06-22T02:05:47;14.80;;;11.20;;
72095;SDS011;59968;51.084;16.748;2023-06-22T02:08:47;15.60;;;11.00;;
72095;SDS011;59968;51.084;16.748;2023-06-22T02:11:19;15.50;;;12.00;;
72095;SDS011;59968;51.084;16.748;2023-06-22T02:13:50;14.60;;;11.70;;
72095;SDS011;59968;51.084;16.748;2023-06-22T02:16:20;16.40;;;11.50;;
72095;SDS011;59968;51.084;16.748;2023-06-22T02:18:49;19.00;;;12.40;;
72095;SDS011;59968;51.084;16.748;2023-06-22T02:21:19;16.10;;;12.00;;
72095;SDS011;59968;51.084;16.748;2023-06-22T02:23:48;17.40;;;11.10;;
72095;SDS011;59968;51.084;16.748;2023-06-22T02:26:17;16.90;;;10.40;;
72095;SDS011;59968;51.084;16.748;2023-06-22T02:28:46;17.60;;;11.10;;
72095;SDS011;59968;51.084;16.748;2023-06-22T02:31:17;15.50;;;11.80;;
72095;SDS011;59968;51.084;16.748;2023-06-22T02:33:46;18.10;;;12.40;;
72095;SDS011;59968;51.084;16.748;2023-06-22T02:36:19;19.10;;;13.00;;
72095;SDS011;59968;51.084;16.748;2023-06-22T02:38:50;15.10;;;11.80;;
72095;SDS011;59968;51.084;16.748;2023-06-22T02:41:18;16.30;;;12.00;;
72095;SDS011;59968;51.084;16.748;2023-06-22T02:43:49;17.30;;;12.20;;
72095;SDS011;59968;51.084;16.748;2023-06-22T02:46:20;18.60;;;12.20;;
72095;SDS011;59968;51.084;16.748;2023-06-22T02:48:49;17.00;;;12.60;;
72095;SDS011;59968;51.084;16.748;2023-06-22T02:51:18;15.10;;;11.60;;
72095;SDS011;59968;51.084;16.748;2023-06-22T02:53:47;16.80;;;11.70;;
72095;SDS011;59968;51.084;16.748;2023-06-22T02:56:16;16.50;;;12.10;;
72095;SDS011;59968;51.084;16.748;2023-06-22T02:58:46;17.60;;;12.30;;
72095;SDS011;59968;51.084;16.748;2023-06-22T03:01:14;16.80;;;12.40;;
72095;SDS011;59968;51.084;16.748;2023-06-22T03:03:45;16.70;;;12.10;;
72095;SDS011;59968;51.084;16.748;2023-06-22T03:06:14;15.50;;;12.10;;
72095;SDS011;59968;51.084;16.748;2023-06-22T03:08:42;19.30;;;12.20;;
72095;SDS011;59968;51.084;16.748;2023-06-22T03:11:11;18.10;;;12.20;;
72095;SDS011;59968;51.084;16.748;2023-06-22T03:13:39;14.40;;;11.60;;
72095;SDS011;59968;51.084;16.748;2023-06-22T03:16:08;18.00;;;12.30;;
72095;SDS011;59968;51.084;16.748;2023-06-22T03:18:37;17.60;;;12.50;;
72095;SDS011;59968;51.084;16.748;2023-06-22T03:21:06;17.80;;;12.70;;
72095;SDS011;59968;51.084;16.748;2023-06-22T03:23:34;20.30;;;12.10;;
72095;SDS011;59968;51.084;16.748;2023-06-22T03:26:02;22.90;;;13.40;;
72095;SDS011;59968;51.084;16.748;2023-06-22T03:28:32;18.80;;;12.90;;
72095;SDS011;59968;51.084;16.748;2023-06-22T03:31:00;19.40;;;12.40;;
72095;SDS011;59968;51.084;16.748;2023-06-22T03:33:30;18.50;;;12.00;;
72095;SDS011;59968;51.084;16.748;2023-06-22T03:35:58;18.20;;;12.40;;
72095;SDS011;59968;51.084;16.748;2023-06-22T03:38:27;17.70;;;12.40;;
72095;SDS011;59968;51.084;16.748;2023-06-22T03:40:56;16.80;;;12.00;;
72095;SDS011;59968;51.084;16.748;2023-06-22T03:43:26;19.40;;;12.70;;
72095;SDS011;59968;51.084;16.748;2023-06-22T03:45:56;17.90;;;12.60;;
72095;SDS011;59968;51.084;16.748;2023-06-22T03:48:24;17.00;;;13.10;;
72095;SDS011;59968;51.084;16.748;2023-06-22T03:50:53;19.90;;;13.00;;
72095;SDS011;59968;51.084;16.748;2023-06-22T03:53:21;17.60;;;12.80;;
72095;SDS011;59968;51.084;16.748;2023-06-22T03:55:50;16.40;;;12.30;;
72095;SDS011;59968;51.084;16.748;2023-06-22T03:58:20;19.70;;;12.70;;
72095;SDS011;59968;51.084;16.748;2023-06-22T04:00:49;17.80;;;12.00;;
72095;SDS011;59968;51.084;16.748;2023-06-22T04:03:19;18.60;;;12.60;;
72095;SDS011;59968;51.084;16.748;2023-06-22T04:05:48;18.10;;;12.20;;
72095;SDS011;59968;51.084;16.748;2023-06-22T04:08:17;18.30;;;12.40;;
72095;SDS011;59968;51.084;16.748;2023-06-22T04:10:46;16.00;;;11.20;;
72095;SDS011;59968;51.084;16.748;2023-06-22T04:13:14;17.60;;;12.40;;
72095;SDS011;59968;51.084;16.748;2023-06-22T04:15:42;18.90;;;12.20;;
72095;SDS011;59968;51.084;16.748;2023-06-22T04:18:11;20.40;;;12.90;;
72095;SDS011;59968;51.084;16.748;2023-06-22T04:20:39;22.00;;;12.40;;
72095;SDS011;59968;51.084;16.748;2023-06-22T04:23:08;16.80;;;12.30;;
72095;SDS011;59968;51.084;16.748;2023-06-22T04:25:36;16.60;;;11.60;;
72095;SDS011;59968;51.084;16.748;2023-06-22T04:28:05;17.40;;;11.90;;
72095;SDS011;59968;51.084;16.748;2023-06-22T04:30:33;16.80;;;11.70;;
72095;SDS011;59968;51.084;16.748;2023-06-22T04:33:01;18.10;;;11.90;;
72095;SDS011;59968;51.084;16.748;2023-06-22T04:35:30;16.90;;;12.10;;
72095;SDS011;59968;51.084;16.748;2023-06-22T04:37:58;19.50;;;12.40;;
72095;SDS011;59968;51.084;16.748;2023-06-22T04:40:27;18.90;;;12.30;;
72095;SDS011;59968;51.084;16.748;2023-06-22T04:42:56;18.00;;;12.90;;
72095;SDS011;59968;51.084;16.748;2023-06-22T04:45:24;19.50;;;12.30;;
72095;SDS011;59968;51.084;16.748;2023-06-22T04:47:53;17.10;;;12.60;;
72095;SDS011;59968;51.084;16.748;2023-06-22T04:50:21;16.40;;;12.40;;
72095;SDS011;59968;51.084;16.748;2023-06-22T04:52:53;16.90;;;12.10;;
72095;SDS011;59968;51.084;16.748;2023-06-22T04:55:21;16.30;;;11.10;;
72095;SDS011;59968;51.084;16.748;2023-06-22T04:57:50;17.90;;;12.00;;
72095;SDS011;59968;51.084;16.748;2023-06-22T05:00:19;18.20;;;12.30;;
72095;SDS011;59968;51.084;16.748;2023-06-22T05:02:50;19.00;;;13.60;;
72095;SDS011;59968;51.084;16.748;2023-06-22T05:05:19;17.50;;;12.90;;
72095;SDS011;59968;51.084;16.748;2023-06-22T05:07:49;17.30;;;13.30;;
72095;SDS011;59968;51.084;16.748;2023-06-22T05:10:20;17.70;;;13.50;;
72095;SDS011;59968;51.084;16.748;2023-06-22T05:12:49;17.50;;;13.90;;
72095;SDS011;59968;51.084;16.748;2023-06-22T05:15:18;18.40;;;14.10;;
72095;SDS011;59968;51.084;16.748;2023-06-22T05:17:47;17.60;;;14.10;;
72095;SDS011;59968;51.084;16.748;2023-06-22T05:20:16;17.70;;;13.80;;
72095;SDS011;59968;51.084;16.748;2023-06-22T05:22:49;17.70;;;14.10;;
72095;SDS011;59968;51.084;16.748;2023-06-22T05:25:17;18.70;;;13.80;;
72095;SDS011;59968;51.084;16.748;2023-06-22T05:27:46;17.70;;;14.20;;
72095;SDS011;59968;51.084;16.748;2023-06-22T05:30:15;15.70;;;13.30;;
72095;SDS011;59968;51.084;16.748;2023-06-22T05:32:46;17.70;;;14.70;;
72095;SDS011;59968;51.084;16.748;2023-06-22T05:35:15;18.10;;;13.90;;
72095;SDS011;59968;51.084;16.748;2023-06-22T05:37:43;17.50;;;13.40;;
72095;SDS011;59968;51.084;16.748;2023-06-22T05:40:12;16.90;;;14.10;;
72095;SDS011;59968;51.084;16.748;2023-06-22T05:42:41;18.40;;;14.50;;
72095;SDS011;59968;51.084;16.748;2023-06-22T05:45:09;19.00;;;14.90;;
72095;SDS011;59968;51.084;16.748;2023-06-22T05:47:38;18.20;;;14.70;;
72095;SDS011;59968;51.084;16.748;2023-06-22T05:50:07;17.70;;;13.60;;
72095;SDS011;59968;51.084;16.748;2023-06-22T05:52:40;18.70;;;14.70;;
72095;SDS011;59968;51.084;16.748;2023-06-22T05:55:08;18.70;;;15.30;;
72095;SDS011;59968;51.084;16.748;2023-06-22T05:57:37;25.80;;;15.30;;
72095;SDS011;59968;51.084;16.748;2023-06-22T06:00:06;21.60;;;15.90;;
72095;SDS011;59968;51.084;16.748;2023-06-22T06:02:39;20.60;;;16.70;;
72095;SDS011;59968;51.084;16.748;2023-06-22T06:05:12;20.90;;;16.20;;
72095;SDS011;59968;51.084;16.748;2023-06-22T06:07:44;20.50;;;15.80;;
72095;SDS011;59968;51.084;16.748;2023-06-22T06:10:14;20.20;;;15.80;;
72095;SDS011;59968;51.084;16.748;2023-06-22T06:12:43;19.00;;;15.30;;
72095;SDS011;59968;51.084;16.748;2023-06-22T06:15:12;19.40;;;15.70;;
72095;SDS011;59968;51.084;16.748;2023-06-22T06:17:49;19.30;;;16.50;;
72095;SDS011;59968;51.084;16.748;2023-06-22T06:20:21;21.60;;;15.90;;
72095;SDS011;59968;51.084;16.748;2023-06-22T06:22:52;20.10;;;15.20;;
72095;SDS011;59968;51.084;16.748;2023-06-22T06:25:21;18.70;;;14.80;;
72095;SDS011;59968;51.084;16.748;2023-06-22T06:27:52;19.00;;;15.50;;
72095;SDS011;59968;51.084;16.748;2023-06-22T06:30:23;20.50;;;15.90;;
72095;SDS011;59968;51.084;16.748;2023-06-22T06:32:52;20.80;;;15.80;;
72095;SDS011;59968;51.084;16.748;2023-06-22T06:35:21;20.50;;;16.00;;
72095;SDS011;59968;51.084;16.748;2023-06-22T06:37:50;20.70;;;15.70;;
72095;SDS011;59968;51.084;16.748;2023-06-22T06:40:20;19.60;;;16.20;;
72095;SDS011;59968;51.084;16.748;2023-06-22T06:42:48;19.10;;;15.40;;
72095;SDS011;59968;51.084;16.748;2023-06-22T06:45:18;20.90;;;16.10;;
72095;SDS011;59968;51.084;16.748;2023-06-22T06:47:48;21.20;;;16.50;;
72095;SDS011;59968;51.084;16.748;2023-06-22T06:50:18;18.90;;;15.00;;
72095;SDS011;59968;51.084;16.748;2023-06-22T06:52:48;17.80;;;15.20;;
72095;SDS011;59968;51.084;16.748;2023-06-22T06:55:18;18.20;;;14.90;;
72095;SDS011;59968;51.084;16.748;2023-06-22T06:57:48;18.80;;;15.20;;
72095;SDS011;59968;51.084;16.748;2023-06-22T07:00:18;18.10;;;14.90;;
72095;SDS011;59968;51.084;16.748;2023-06-22T07:02:48;16.40;;;14.00;;
72095;SDS011;59968;51.084;16.748;2023-06-22T07:05:17;16.80;;;15.00;;
72095;SDS011;59968;51.084;16.748;2023-06-22T07:07:45;17.40;;;14.50;;
72095;SDS011;59968;51.084;16.748;2023-06-22T07:10:14;15.40;;;13.50;;
72095;SDS011;59968;51.084;16.748;2023-06-22T07:12:43;17.20;;;13.20;;
72095;SDS011;59968;51.084;16.748;2023-06-22T07:15:13;16.70;;;14.10;;
72095;SDS011;59968;51.084;16.748;2023-06-22T07:17:41;16.20;;;12.80;;
72095;SDS011;59968;51.084;16.748;2023-06-22T07:20:10;14.70;;;12.50;;
72095;SDS011;59968;51.084;16.748;2023-06-22T07:22:41;15.40;;;12.50;;
72095;SDS011;59968;51.084;16.748;2023-06-22T07:25:10;16.60;;;12.20;;
72095;SDS011;59968;51.084;16.748;2023-06-22T07:27:56;16.80;;;12.40;;
72095;SDS011;59968;51.084;16.748;2023-06-22T07:30:26;14.50;;;12.00;;
72095;SDS011;59968;51.084;16.748;2023-06-22T07:32:56;15.20;;;12.90;;
72095;SDS011;59968;51.084;16.748;2023-06-22T07:35:26;16.20;;;13.10;;
72095;SDS011;59968;51.084;16.748;2023-06-22T07:37:55;13.40;;;11.40;;
72095;SDS011;59968;51.084;16.748;2023-06-22T07:40:23;12.10;;;10.80;;
72095;SDS011;59968;51.084;16.748;2023-06-22T07:42:52;14.00;;;11.70;;
72095;SDS011;59968;51.084;16.748;2023-06-22T07:45:21;13.30;;;11.10;;
72095;SDS011;59968;51.084;16.748;2023-06-22T07:47:50;13.80;;;11.20;;
72095;SDS011;59968;51.084;16.748;2023-06-22T07:50:19;14.20;;;11.70;;
72095;SDS011;59968;51.084;16.748;2023-06-22T07:52:48;12.60;;;10.40;;
72095;SDS011;59968;51.084;16.748;2023-06-22T07:55:16;13.30;;;11.30;;
72095;SDS011;59968;51.084;16.748;2023-06-22T07:57:46;12.80;;;11.00;;
72095;SDS011;59968;51.084;16.748;2023-06-22T08:00:18;12.30;;;11.10;;
72095;SDS011;59968;51.084;16.748;2023-06-22T08:02:48;15.50;;;11.90;;
72095;SDS011;59968;51.084;16.748;2023-06-22T08:05:18;13.50;;;11.60;;
72095;SDS011;59968;51.084;16.748;2023-06-22T08:07:50;14.20;;;11.50;;
72095;SDS011;59968;51.084;16.748;2023-06-22T08:10:18;13.20;;;11.40;;
72095;SDS011;59968;51.084;16.748;2023-06-22T08:12:47;14.30;;;11.40;;
72095;SDS011;59968;51.084;16.748;2023-06-22T08:15:16;13.60;;;10.70;;
72095;SDS011;59968;51.084;16.748;2023-06-22T08:17:45;14.70;;;11.80;;
72095;SDS011;59968;51.084;16.748;2023-06-22T08:20:14;11.90;;;10.60;;
72095;SDS011;59968;51.084;16.748;2023-06-22T08:22:43;13.60;;;11.30;;
72095;SDS011;59968;51.084;16.748;2023-06-22T08:25:15;13.80;;;11.70;;
72095;SDS011;59968;51.084;16.748;2023-06-22T08:27:44;12.00;;;10.30;;
72095;SDS011;59968;51.084;16.748;2023-06-22T08:30:16;13.40;;;10.70;;
72095;SDS011;59968;51.084;16.748;2023-06-22T08:32:46;13.00;;;11.60;;
72095;SDS011;59968;51.084;16.748;2023-06-22T08:35:15;11.80;;;10.60;;
72095;SDS011;59968;51.084;16.748;2023-06-22T08:37:44;12.30;;;10.80;;
72095;SDS011;59968;51.084;16.748;2023-06-22T08:40:19;11.80;;;10.10;;
72095;SDS011;59968;51.084;16.748;2023-06-22T08:42:51;11.90;;;10.00;;
72095;SDS011;59968;51.084;16.748;2023-06-22T08:45:20;12.60;;;11.00;;
72095;SDS011;59968;51.084;16.748;2023-06-22T08:47:52;12.30;;;11.00;;
72095;SDS011;59968;51.084;16.748;2023-06-22T08:50:23;14.00;;;11.50;;
72095;SDS011;59968;51.084;16.748;2023-06-22T08:52:56;13.40;;;11.00;;
72095;SDS011;59968;51.084;16.748;2023-06-22T08:55:31;11.90;;;10.60;;
72095;SDS011;59968;51.084;16.748;2023-06-22T08:58:02;13.10;;;10.90;;
72095;SDS011;59968;51.084;16.748;2023-06-22T09:00:32;11.70;;;10.30;;
72095;SDS011;59968;51.084;16.748;2023-06-22T09:03:03;12.60;;;11.20;;
72095;SDS011;59968;51.084;16.748;2023-06-22T09:05:34;12.20;;;10.80;;
72095;SDS011;59968;51.084;16.748;2023-06-22T09:08:07;11.80;;;10.60;;
72095;SDS011;59968;51.084;16.748;2023-06-22T09:10:38;12.00;;;10.30;;
72095;SDS011;59968;51.084;16.748;2023-06-22T09:13:07;12.60;;;10.60;;
72095;SDS011;59968;51.084;16.748;2023-06-22T09:15:39;13.80;;;10.50;;
72095;SDS011;59968;51.084;16.748;2023-06-22T09:18:14;12.40;;;10.30;;
72095;SDS011;59968;51.084;16.748;2023-06-22T09:20:43;11.90;;;9.90;;
72095;SDS011;59968;51.084;16.748;2023-06-22T09:23:13;11.50;;;9.70;;
72095;SDS011;59968;51.084;16.748;2023-06-22T09:25:43;13.10;;;10.90;;
72095;SDS011;59968;51.084;16.748;2023-06-22T09:28:12;11.70;;;10.50;;
72095;SDS011;59968;51.084;16.748;2023-06-22T09:30:43;12.20;;;11.00;;
72095;SDS011;59968;51.084;16.748;2023-06-22T09:33:15;12.20;;;10.90;;
72095;SDS011;59968;51.084;16.748;2023-06-22T09:35:45;11.70;;;10.50;;
72095;SDS011;59968;51.084;16.748;2023-06-22T09:38:15;12.00;;;10.60;;
72095;SDS011;59968;51.084;16.748;2023-06-22T09:40:44;12.40;;;10.90;;
72095;SDS011;59968;51.084;16.748;2023-06-22T09:43:13;12.10;;;9.80;;
72095;SDS011;59968;51.084;16.748;2023-06-22T09:45:42;11.20;;;9.90;;
72095;SDS011;59968;51.084;16.748;2023-06-22T09:48:10;13.30;;;10.10;;
72095;SDS011;59968;51.084;16.748;2023-06-22T09:50:39;10.40;;;9.30;;
72095;SDS011;59968;51.084;16.748;2023-06-22T09:53:08;11.00;;;9.70;;
72095;SDS011;59968;51.084;16.748;2023-06-22T09:55:36;11.20;;;9.90;;
72095;SDS011;59968;51.084;16.748;2023-06-22T09:58:05;11.10;;;9.30;;
72095;SDS011;59968;51.084;16.748;2023-06-22T10:00:34;10.20;;;9.20;;
72095;SDS011;59968;51.084;16.748;2023-06-22T10:03:02;10.50;;;9.30;;
72095;SDS011;59968;51.084;16.748;2023-06-22T10:05:33;10.00;;;8.80;;
72095;SDS011;59968;51.084;16.748;2023-06-22T10:08:02;10.50;;;9.50;;
72095;SDS011;59968;51.084;16.748;2023-06-22T10:10:30;10.20;;;9.20;;
72095;SDS011;59968;51.084;16.748;2023-06-22T10:13:10;10.70;;;9.60;;
72095;SDS011;59968;51.084;16.748;2023-06-22T10:15:39;11.10;;;9.10;;
72095;SDS011;59968;51.084;16.748;2023-06-22T10:18:08;10.80;;;9.30;;
72095;SDS011;59968;51.084;16.748;2023-06-22T10:20:37;10.30;;;9.20;;
72095;SDS011;59968;51.084;16.748;2023-06-22T10:23:05;10.90;;;9.10;;
72095;SDS011;59968;51.084;16.748;2023-06-22T10:25:34;11.60;;;9.10;;
72095;SDS011;59968;51.084;16.748;2023-06-22T10:28:03;10.60;;;9.60;;
72095;SDS011;59968;51.084;16.748;2023-06-22T10:30:32;11.50;;;9.10;;
72095;SDS011;59968;51.084;16.748;2023-06-22T10:33:01;10.40;;;9.30;;
72095;SDS011;59968;51.084;16.748;2023-06-22T10:35:30;12.00;;;9.90;;
72095;SDS011;59968;51.084;16.748;2023-06-22T10:38:00;11.00;;;9.20;;
72095;SDS011;59968;51.084;16.748;2023-06-22T10:40:28;10.20;;;9.20;;
72095;SDS011;59968;51.084;16.748;2023-06-22T10:42:57;9.90;;;8.70;;
72095;SDS011;59968;51.084;16.748;2023-06-22T10:45:26;10.10;;;9.00;;
72095;SDS011;59968;51.084;16.748;2023-06-22T10:47:57;9.50;;;8.30;;
72095;SDS011;59968;51.084;16.748;2023-06-22T10:50:26;9.50;;;8.40;;
72095;SDS011;59968;51.084;16.748;2023-06-22T10:52:55;9.40;;;8.50;;
72095;SDS011;59968;51.084;16.748;2023-06-22T10:55:28;9.80;;;8.60;;
72095;SDS011;59968;51.084;16.748;2023-06-22T10:58:18;11.10;;;9.30;;
72095;SDS011;59968;51.084;16.748;2023-06-22T11:00:47;11.30;;;8.70;;
72095;SDS011;59968;51.084;16.748;2023-06-22T11:03:18;10.10;;;8.70;;
72095;SDS011;59968;51.084;16.748;2023-06-22T11:05:48;9.80;;;8.80;;
72095;SDS011;59968;51.084;16.748;2023-06-22T11:08:17;11.60;;;8.20;;
72095;SDS011;59968;51.084;16.748;2023-06-22T11:10:45;9.70;;;8.40;;
72095;SDS011;59968;51.084;16.748;2023-06-22T11:13:14;9.60;;;8.40;;
72095;SDS011;59968;51.084;16.748;2023-06-22T11:15:43;9.50;;;8.20;;
72095;SDS011;59968;51.084;16.748;2023-06-22T11:18:11;9.20;;;8.20;;
72095;SDS011;59968;51.084;16.748;2023-06-22T11:20:40;9.30;;;8.10;;
72095;SDS011;59968;51.084;16.748;2023-06-22T11:23:09;10.10;;;8.40;;
72095;SDS011;59968;51.084;16.748;2023-06-22T11:25:40;10.30;;;8.70;;
72095;SDS011;59968;51.084;16.748;2023-06-22T11:28:10;10.50;;;8.90;;
72095;SDS011;59968;51.084;16.748;2023-06-22T11:30:39;9.90;;;8.90;;
72095;SDS011;59968;51.084;16.748;2023-06-22T11:33:08;9.60;;;8.60;;
72095;SDS011;59968;51.084;16.748;2023-06-22T11:35:37;10.00;;;8.80;;
72095;SDS011;59968;51.084;16.748;2023-06-22T11:38:06;9.30;;;8.40;;
72095;SDS011;59968;51.084;16.748;2023-06-22T11:40:36;10.40;;;8.40;;
72095;SDS011;59968;51.084;16.748;2023-06-22T11:43:10;9.00;;;8.10;;
72095;SDS011;59968;51.084;16.748;2023-06-22T11:45:39;9.90;;;8.70;;
72095;SDS011;59968;51.084;16.748;2023-06-22T11:48:08;10.10;;;9.10;;
72095;SDS011;59968;51.084;16.748;2023-06-22T11:50:39;9.00;;;8.10;;
72095;SDS011;59968;51.084;16.748;2023-06-22T11:53:09;8.90;;;8.00;;
72095;SDS011;59968;51.084;16.748;2023-06-22T11:55:39;10.30;;;9.20;;
72095;SDS011;59968;51.084;16.748;2023-06-22T11:58:10;9.70;;;8.30;;
72095;SDS011;59968;51.084;16.748;2023-06-22T12:00:40;8.80;;;7.90;;
72095;SDS011;59968;51.084;16.748;2023-06-22T12:03:18;9.50;;;8.60;;
72095;SDS011;59968;51.084;16.748;2023-06-22T12:05:49;8.90;;;8.00;;
72095;SDS011;59968;51.084;16.748;2023-06-22T12:08:20;11.70;;;8.90;;
72095;SDS011;59968;51.084;16.748;2023-06-22T12:10:50;9.20;;;8.00;;
72095;SDS011;59968;51.084;16.748;2023-06-22T12:13:20;9.10;;;8.00;;
72095;SDS011;59968;51.084;16.748;2023-06-22T12:15:50;10.60;;;7.60;;
72095;SDS011;59968;51.084;16.748;2023-06-22T12:18:21;9.10;;;8.20;;
72095;SDS011;59968;51.084;16.748;2023-06-22T12:20:50;8.40;;;7.30;;
72095;SDS011;59968;51.084;16.748;2023-06-22T12:23:19;8.70;;;7.70;;
72095;SDS011;59968;51.084;16.748;2023-06-22T12:25:48;8.30;;;7.40;;
72095;SDS011;59968;51.084;16.748;2023-06-22T12:28:17;9.20;;;8.10;;
72095;SDS011;59968;51.084;16.748;2023-06-22T12:30:47;9.50;;;8.10;;
72095;SDS011;59968;51.084;16.748;2023-06-22T12:33:16;10.00;;;8.40;;
72095;SDS011;59968;51.084;16.748;2023-06-22T12:35:45;9.10;;;8.10;;
72095;SDS011;59968;51.084;16.748;2023-06-22T12:38:18;8.90;;;7.90;;
72095;SDS011;59968;51.084;16.748;2023-06-22T12:40:47;8.60;;;7.70;;
72095;SDS011;59968;51.084;16.748;2023-06-22T12:43:18;10.80;;;8.60;;
72095;SDS011;59968;51.084;16.748;2023-06-22T12:45:46;9.50;;;8.00;;
72095;SDS011;59968;51.084;16.748;2023-06-22T12:48:16;8.80;;;7.90;;
72095;SDS011;59968;51.084;16.748;2023-06-22T12:50:45;8.90;;;8.00;;
72095;SDS011;59968;51.084;16.748;2023-06-22T12:53:17;9.10;;;8.20;;
72095;SDS011;59968;51.084;16.748;2023-06-22T12:55:46;9.40;;;8.50;;
72095;SDS011;59968;51.084;16.748;2023-06-22T12:58:15;9.50;;;8.50;;
72095;SDS011;59968;51.084;16.748;2023-06-22T13:00:45;9.30;;;8.30;;
72095;SDS011;59968;51.084;16.748;2023-06-22T13:03:14;11.80;;;8.60;;
72095;SDS011;59968;51.084;16.748;2023-06-22T13:05:42;11.90;;;7.90;;
72095;SDS011;59968;51.084;16.748;2023-06-22T13:08:12;8.80;;;7.90;;
72095;SDS011;59968;51.084;16.748;2023-06-22T13:10:42;10.70;;;8.30;;
72095;SDS011;59968;51.084;16.748;2023-06-22T13:13:12;11.10;;;8.40;;
72095;SDS011;59968;51.084;16.748;2023-06-22T13:15:41;8.40;;;7.40;;
72095;SDS011;59968;51.084;16.748;2023-06-22T13:18:10;9.10;;;8.20;;
72095;SDS011;59968;51.084;16.748;2023-06-22T13:20:39;9.20;;;8.20;;
72095;SDS011;59968;51.084;16.748;2023-06-22T13:23:08;9.70;;;8.10;;
72095;SDS011;59968;51.084;16.748;2023-06-22T13:25:37;9.60;;;8.60;;
72095;SDS011;59968;51.084;16.748;2023-06-22T13:28:05;9.70;;;8.70;;
72095;SDS011;59968;51.084;16.748;2023-06-22T13:30:40;9.00;;;8.10;;
72095;SDS011;59968;51.084;16.748;2023-06-22T13:33:09;11.40;;;8.80;;
72095;SDS011;59968;51.084;16.748;2023-06-22T13:35:37;9.10;;;8.20;;
72095;SDS011;59968;51.084;16.748;2023-06-22T13:38:06;11.50;;;8.00;;
72095;SDS011;59968;51.084;16.748;2023-06-22T13:40:34;9.10;;;8.20;;
72095;SDS011;59968;51.084;16.748;2023-06-22T13:43:06;8.70;;;7.80;;
72095;SDS011;59968;51.084;16.748;2023-06-22T13:45:35;8.50;;;7.60;;
72095;SDS011;59968;51.084;16.748;2023-06-22T13:48:03;10.90;;;8.20;;
72095;SDS011;59968;51.084;16.748;2023-06-22T13:50:32;9.20;;;7.30;;
72095;SDS011;59968;51.084;16.748;2023-06-22T13:53:02;9.20;;;7.80;;
72095;SDS011;59968;51.084;16.748;2023-06-22T13:55:30;9.20;;;7.10;;
72095;SDS011;59968;51.084;16.748;2023-06-22T13:57:59;8.60;;;7.30;;
72095;SDS011;59968;51.084;16.748;2023-06-22T14:00:32;13.00;;;8.00;;
72095;SDS011;59968;51.084;16.748;2023-06-22T14:03:02;10.60;;;8.00;;
72095;SDS011;59968;51.084;16.748;2023-06-22T14:05:32;8.60;;;7.70;;
72095;SDS011;59968;51.084;16.748;2023-06-22T14:08:04;10.60;;;7.60;;
72095;SDS011;59968;51.084;16.748;2023-06-22T14:10:56;8.60;;;7.70;;
72095;SDS011;59968;51.084;16.748;2023-06-22T14:13:29;8.50;;;7.70;;
72095;SDS011;59968;51.084;16.748;2023-06-22T14:15:59;8.90;;;7.70;;
72095;SDS011;59968;51.084;16.748;2023-06-22T14:18:30;9.30;;;7.50;;
72095;SDS011;59968;51.084;16.748;2023-06-22T14:21:01;7.70;;;6.90;;
72095;SDS011;59968;51.084;16.748;2023-06-22T14:23:32;8.50;;;7.70;;
72095;SDS011;59968;51.084;16.748;2023-06-22T14:26:09;8.00;;;7.20;;
72095;SDS011;59968;51.084;16.748;2023-06-22T14:28:38;8.30;;;7.40;;
72095;SDS011;59968;51.084;16.748;2023-06-22T14:31:16;8.20;;;7.30;;
72095;SDS011;59968;51.084;16.748;2023-06-22T14:33:48;8.50;;;7.60;;
72095;SDS011;59968;51.084;16.748;2023-06-22T14:36:17;8.50;;;7.50;;
72095;SDS011;59968;51.084;16.748;2023-06-22T14:38:46;8.10;;;7.20;;
72095;SDS011;59968;51.084;16.748;2023-06-22T14:41:15;9.50;;;7.30;;